• Join FlightAware (Why Join?)
  • Login
  • US Flag 
06:54AM EST


 

Airport Tracker/Info


-or-


 

Live Flight TrackerFlight Track Log ✈ CSN3233 ✈ 10-Nov-2013 ✈ ZGKL / KWL - ZGGG / CAN

Flight Track Log - Related Links

Times and Time Zones

All times are in EST time to prevent confusion due to time zone crossing. See the CSN3233 flight status page for this flight to view local times or setup timezone preferences in your user account.

Time Position Orientation Groundspeed Altitude Reporting Facility
EST Latitude Longitude Course Direction KTS MPH feet Rate Location/Type
08:39AM 25.1622 110.1424 121° Southeast  Level Estimated
08:39AM 24.1620 111.2990 121° Southeast 423 487 24,300  Level FlightAware
08:40AM 25.1061 110.2456 121° Southeast  Level Estimated
08:40AM 24.0820 111.3300 161° South 423 487 24,300  Level FlightAware
08:41AM 23.9860 111.3660 161° South 423 487 24,300  Level FlightAware
08:41AM 23.9290 111.3870 161° South 423 487 24,300  Level FlightAware
08:42AM 23.8540 111.4150 161° South 423 487 24,300  Level FlightAware
08:43AM 23.7970 111.4370 161° South 423 487 24,300 -3,180 Level FlightAware
08:43AM 23.6850 111.4030 196° South 378 435 20,700 -4,200 Descending FlightAware
08:44AM 23.6540 111.4090 170° South 378 435 20,700 -420 Level FlightAware
08:45AM 23.5500 111.4270 171° South 379 436 20,200 -720 Descending FlightAware
08:45AM 23.4880 111.4370 172° South 375 432 19,600 -1,080 Descending FlightAware
08:46AM 23.4190 111.4480 172° South 369 425 18,900 -600 Descending FlightAware
08:47AM 23.3540 111.4590 171° South 368 423 18,800 -1,080 Descending FlightAware
08:47AM 23.3070 111.4670 171° South 361 415 17,700 -1,680 Descending FlightAware
08:48AM 23.2500 111.5230 138° Southeast 355 409 16,900 -600 Descending FlightAware
08:49AM 23.2320 111.6150 102° East 352 405 16,700 -120 Descending FlightAware
08:50AM 23.2140 111.7090 102° East 355 409 16,700  Level FlightAware
08:50AM 23.2030 111.7710 101° East 358 412 16,700 -180 Level FlightAware
08:51AM 23.1890 111.8510 101° East 356 410 16,500 -540 Descending FlightAware
08:51AM 23.1800 111.8980 102° East 353 406 16,100 -1,020 Descending FlightAware
08:52AM 23.1700 111.9530 101° East 339 390 15,500 -1,140 Descending FlightAware
08:53AM 23.1570 112.0240 101° East 318 366 14,700 -1,140 Descending FlightAware
08:53AM 23.1470 112.0850 100° East 307 353 13,900 -540 Descending FlightAware
08:54AM 23.1510 112.1890 88° East 304 350 13,800 -60 Descending FlightAware
08:55AM 23.1530 112.2520 88° East 303 349 13,800  Level FlightAware
08:56AM 23.1570 112.3000 85° East 273 314 13,800  Level FlightAware
08:56AM 23.1640 112.3530 82° East 258 297 13,800  Level FlightAware
08:57AM 23.1680 112.3790 80° East 253 291 13,800 -240 Level FlightAware
08:58AM 23.1730 112.4500 86° East 249 287 13,500 -600 Descending FlightAware
08:58AM 23.1730 112.4840 90° East 251 289 13,000 -1,020 Descending FlightAware
08:59AM 23.1720 112.5480 91° East 247 284 12,200 -1,020 Descending FlightAware
08:59AM 23.1710 112.5850 92° East 245 282 11,700 -1,020 Descending FlightAware
09:00AM 23.1690 112.6280 93° East 241 277 11,100 -780 Descending FlightAware
09:01AM 23.1670 112.6740 93° East 232 267 10,800 -240 Descending FlightAware
09:01AM 23.1660 112.7160 91° East 235 270 10,800 -540 Level FlightAware
09:02AM 23.1640 112.7600 93° East 233 268 10,200 -1,020 Descending FlightAware
09:02AM 23.1630 112.7990 92° East 229 264 9,600 -1,080 Descending FlightAware
09:03AM 23.1600 112.8400 95° East 225 259 9,000 -1,080 Descending FlightAware
09:04AM 23.1590 112.8770 92° East 221 254 8,400 -1,200 Descending FlightAware
09:04AM 23.1570 112.9200 93° East 221 254 7,600 -1,200 Descending FlightAware
09:05AM 23.1550 112.9620 93° East 218 251 6,900 -1,020 Descending FlightAware
09:05AM 23.1520 113.0000 95° East 211 243 6,400 -960 Descending FlightAware
09:06AM 23.1510 113.0300 92° East 210 242 5,900 -1,080 Descending FlightAware
09:06AM 23.1480 113.0680 95° East 205 236 5,300 -1,080 Descending FlightAware
09:07AM 23.1450 113.1160 94° East 203 234 4,500 -1,080 Descending FlightAware
09:08AM 23.1440 113.1450 92° East 200 230 4,000 -780 Descending FlightAware
09:08AM 23.1420 113.1720 95° East 186 214 3,800 -420 Descending FlightAware
09:09AM 23.1670 113.2050 51° Northeast 182 209 3,500 -600 Descending FlightAware
09:10AM 23.1930 113.2250 35° Northeast 174 200 3,000 -720 Descending FlightAware
09:10AM 23.2190 113.2410 29° Northeast 183 211 2,600 -720 Descending FlightAware
09:11AM 23.2320 113.2440 12° North 183 211 2,400 -600 Descending FlightAware
09:11AM 23.2790 113.2570 14° North 170 196 1,900 -720 Descending FlightAware
09:12AM 23.3080 113.2650 14° North 151 174 1,300 -840 Descending FlightAware
09:12AM 23.3200 113.2680 13° North 149 171 1,100 -300 Descending FlightAware
09:13AM 23.3360 113.2730 16° North 149 171 1,100  Level FlightAware
09:16AM 23.3924 113.2988 23° Northeast  Level Estimated
09:17AM 23.3924 113.2988 223° Southwest  Level Estimated
09:18AM 23.3924 113.2988 223° Southwest  Level Estimated
09:19AM 23.3924 113.2988 223° Southwest  Level Estimated
09:20AM 23.3924 113.2988 223° Southwest  Level Estimated
09:21AM 23.3924 113.2988 223° Southwest  Level Estimated
09:22AM 23.3924 113.2988 223° Southwest  Level Estimated
09:23AM 23.3924 113.2988 223° Southwest  Level Estimated
09:24AM 23.3924 113.2988 223° Southwest  Level Estimated
09:25AM 23.3924 113.2988 223° Southwest  Level Estimated
09:26AM 23.3924 113.2988 223° Southwest  Level Estimated
09:27AM 23.3924 113.2988 223° Southwest  Level Estimated
09:28AM 23.3924 113.2988 223° Southwest  Level Estimated
09:29AM 23.3924 113.2988 223° Southwest  Level Estimated
09:30AM 23.3924 113.2988 223° Southwest  Level Estimated